createdAt,value
2022-12-19T00:01:43.180Z,1.70
2022-12-19T00:04:16.135Z,1.70
2022-12-19T00:06:44.305Z,1.70
2022-12-19T00:09:14.408Z,1.80
2022-12-19T00:11:43.789Z,1.80
2022-12-19T00:14:14.170Z,1.80
2022-12-19T00:16:45.206Z,1.80
2022-12-19T00:19:14.562Z,1.80
2022-12-19T00:21:44.951Z,1.90
2022-12-19T00:24:21.738Z,1.80
2022-12-19T00:26:56.921Z,1.90
2022-12-19T00:29:29.540Z,1.90
2022-12-19T00:31:58.506Z,2.00
2022-12-19T00:34:28.911Z,1.90
2022-12-19T00:36:57.696Z,2.00
2022-12-19T00:39:30.309Z,2.00
2022-12-19T00:41:58.580Z,2.00
2022-12-19T00:44:27.976Z,2.10
2022-12-19T00:46:58.789Z,2.10
2022-12-19T00:49:30.049Z,2.10
2022-12-19T00:52:00.907Z,2.10
2022-12-19T00:54:33.796Z,2.10
2022-12-19T00:57:03.932Z,2.10
2022-12-19T00:59:38.225Z,2.20
2022-12-19T01:02:10.514Z,2.20
2022-12-19T01:04:41.543Z,2.20
2022-12-19T01:07:15.737Z,2.20
2022-12-19T01:09:44.351Z,2.20
2022-12-19T01:12:33.250Z,2.30
2022-12-19T01:15:05.364Z,2.30
2022-12-19T01:17:43.712Z,2.30
2022-12-19T01:20:20.105Z,2.30
2022-12-19T01:23:00.413Z,2.40
2022-12-19T01:25:28.582Z,2.40
2022-12-19T01:27:57.571Z,2.50
2022-12-19T01:30:26.271Z,2.50
2022-12-19T01:32:57.159Z,2.50
2022-12-19T01:35:26.092Z,2.50
2022-12-19T01:38:08.564Z,2.50
2022-12-19T01:40:37.252Z,2.50
2022-12-19T01:43:05.071Z,2.60
2022-12-19T01:45:35.498Z,2.50
2022-12-19T01:48:14.121Z,2.50
2022-12-19T01:51:06.026Z,2.60
2022-12-19T01:53:48.601Z,2.60
2022-12-19T01:56:24.375Z,2.60
2022-12-19T01:59:03.678Z,2.60
2022-12-19T02:01:51.814Z,2.70
2022-12-19T02:04:26.289Z,2.70
2022-12-19T02:07:01.030Z,2.70
2022-12-19T02:09:47.157Z,2.70
2022-12-19T02:12:20.430Z,2.80
2022-12-19T02:14:49.604Z,2.80
2022-12-19T02:17:52.756Z,2.80
2022-12-19T02:20:39.612Z,2.90
2022-12-19T02:23:19.801Z,2.90
2022-12-19T02:25:57.151Z,3.00
2022-12-19T02:28:29.017Z,3.00
2022-12-19T02:31:37.045Z,3.10
2022-12-19T02:34:18.053Z,3.10
2022-12-19T02:37:10.561Z,3.20
2022-12-19T02:39:41.415Z,3.20
2022-12-19T02:42:28.825Z,3.20
2022-12-19T02:45:10.983Z,3.30
2022-12-19T02:47:48.168Z,3.30
2022-12-19T02:50:29.330Z,3.30
2022-12-19T02:53:08.008Z,3.40
2022-12-19T02:56:15.608Z,3.40
2022-12-19T03:03:35.589Z,3.50
2022-12-19T03:06:56.779Z,3.60
2022-12-19T03:09:55.190Z,3.60
2022-12-19T03:14:10.081Z,3.70
2022-12-19T03:16:42.482Z,3.80
2022-12-19T03:22:22.672Z,3.90
2022-12-19T03:32:52.731Z,3.90
2022-12-19T03:52:50.395Z,3.80
2022-12-19T03:56:33.999Z,3.90
2022-12-19T04:09:16.771Z,3.90
2022-12-19T04:15:10.728Z,3.90
2022-12-19T04:18:48.338Z,3.90
2022-12-19T05:18:19.228Z,3.80
2022-12-19T05:24:10.341Z,3.90
2022-12-19T05:31:15.721Z,3.90
2022-12-19T05:43:16.343Z,4.10
2022-12-19T05:45:43.249Z,4.10
2022-12-19T05:48:10.523Z,4.10
2022-12-19T05:50:41.027Z,4.20
2022-12-19T05:53:10.726Z,4.20
2022-12-19T05:55:37.550Z,4.20
2022-12-19T05:58:04.728Z,4.30
2022-12-19T06:00:31.775Z,4.20
2022-12-19T06:02:58.841Z,4.30
2022-12-19T06:05:25.775Z,4.30
2022-12-19T06:07:52.673Z,4.40
2022-12-19T06:10:21.112Z,4.40
2022-12-19T06:12:48.240Z,4.50
2022-12-19T06:15:15.300Z,4.50
2022-12-19T06:17:42.243Z,4.50
2022-12-19T06:20:09.595Z,4.50
2022-12-19T06:22:36.449Z,4.50
2022-12-19T06:25:03.365Z,4.50
2022-12-19T06:27:30.218Z,4.50
2022-12-19T06:29:57.294Z,4.60
2022-12-19T06:32:24.538Z,4.60
2022-12-19T06:35:06.649Z,4.70
2022-12-19T06:37:33.527Z,4.60
2022-12-19T06:40:00.573Z,4.70
2022-12-19T06:42:27.361Z,4.70
2022-12-19T06:44:56.337Z,4.70
2022-12-19T06:47:24.681Z,4.70
2022-12-19T06:49:51.788Z,4.80
2022-12-19T06:52:18.837Z,4.80
2022-12-19T06:54:45.686Z,4.80
2022-12-19T06:57:12.568Z,4.90
2022-12-19T06:59:39.378Z,4.90
2022-12-19T07:02:23.854Z,4.90
2022-12-19T07:04:57.708Z,4.90
2022-12-19T07:07:24.469Z,5.00
2022-12-19T07:09:51.613Z,5.00
2022-12-19T07:12:18.476Z,5.00
2022-12-19T07:14:50.186Z,5.00
2022-12-19T07:17:20.163Z,5.10
2022-12-19T07:19:47.091Z,5.10
2022-12-19T07:22:13.840Z,5.10
2022-12-19T07:24:40.676Z,5.10
2022-12-19T07:27:07.453Z,5.20
2022-12-19T07:29:34.299Z,5.30
2022-12-19T07:32:01.189Z,5.30
2022-12-19T07:34:28.201Z,5.30
2022-12-19T07:36:55.068Z,5.30
2022-12-19T07:39:21.983Z,5.40
2022-12-19T07:41:48.753Z,5.40
2022-12-19T07:44:26.764Z,5.40
2022-12-19T07:46:53.592Z,5.40
2022-12-19T07:49:22.748Z,5.40
2022-12-19T07:51:49.947Z,5.40
2022-12-19T07:54:16.647Z,5.40
2022-12-19T07:56:44.197Z,5.50
2022-12-19T07:59:12.940Z,5.50
2022-12-19T08:01:39.770Z,5.50
2022-12-19T08:04:07.927Z,5.50
2022-12-19T08:06:40.726Z,5.50
2022-12-19T08:09:07.754Z,5.50
2022-12-19T08:11:34.643Z,5.50
2022-12-19T08:14:02.076Z,5.60
2022-12-19T08:16:30.074Z,5.60
2022-12-19T08:18:57.083Z,5.60
2022-12-19T08:21:25.342Z,5.60
2022-12-19T08:23:52.341Z,5.70
2022-12-19T08:26:24.983Z,5.70
2022-12-19T08:28:53.994Z,5.70
2022-12-19T08:31:24.789Z,5.70
2022-12-19T08:33:57.026Z,5.80
2022-12-19T08:36:24.607Z,5.80
2022-12-19T08:38:52.614Z,5.80
2022-12-19T08:41:19.884Z,5.80
2022-12-19T08:43:51.837Z,5.80
2022-12-19T08:46:26.915Z,5.90
2022-12-19T08:48:54.965Z,5.90
2022-12-19T08:51:21.909Z,5.90
2022-12-19T08:53:48.779Z,6.00
2022-12-19T08:56:20.793Z,6.00
2022-12-19T08:58:49.077Z,6.00
2022-12-19T09:01:20.975Z,6.00
2022-12-19T09:04:53.709Z,6.00
2022-12-19T09:06:35.192Z,6.10
2022-12-19T09:09:04.042Z,6.10
2022-12-19T09:11:31.251Z,6.20
2022-12-19T09:13:58.718Z,6.20
2022-12-19T09:17:27.972Z,6.20
2022-12-19T09:20:59.348Z,6.30
2022-12-19T09:36:05.439Z,6.40
2022-12-19T09:38:33.736Z,6.40
2022-12-19T09:41:13.778Z,6.40
2022-12-19T09:44:01.372Z,6.40
2022-12-19T09:46:52.735Z,6.50
2022-12-19T09:49:22.522Z,6.50
2022-12-19T09:51:58.895Z,6.50
2022-12-19T09:54:37.676Z,6.50
2022-12-19T09:57:10.736Z,6.60
2022-12-19T09:59:49.625Z,6.60
2022-12-19T10:02:35.362Z,6.60
2022-12-19T10:05:31.520Z,6.70
2022-12-19T10:08:09.324Z,6.80
2022-12-19T10:12:38.878Z,6.80
2022-12-19T10:14:14.966Z,6.80
2022-12-19T10:17:24.166Z,6.80
2022-12-19T10:20:14.892Z,6.80
2022-12-19T10:23:06.590Z,6.90
2022-12-19T10:25:50.671Z,7.00
2022-12-19T10:28:38.989Z,6.90
2022-12-19T10:31:21.404Z,7.00
2022-12-19T10:34:02.455Z,7.00
2022-12-19T10:37:11.934Z,7.00
2022-12-19T10:39:46.873Z,7.00
2022-12-19T10:42:33.292Z,7.10
2022-12-19T10:45:05.294Z,7.10
2022-12-19T10:47:32.194Z,7.10
2022-12-19T10:50:03.968Z,7.10
2022-12-19T10:53:11.451Z,7.20
2022-12-19T10:55:42.748Z,7.20
2022-12-19T10:58:27.975Z,7.30
2022-12-19T11:01:10.024Z,7.30
2022-12-19T11:03:38.781Z,7.30
2022-12-19T11:30:46.944Z,7.50
2022-12-19T11:30:48.854Z,7.40
2022-12-19T12:12:48.308Z,7.40
2022-12-19T12:17:29.810Z,7.50
2022-12-19T12:27:06.560Z,7.50
2022-12-19T12:31:00.482Z,7.50
2022-12-19T12:31:04.474Z,7.50
2022-12-19T12:31:45.377Z,7.60
2022-12-19T12:31:46.437Z,7.60
2022-12-19T12:32:03.001Z,7.60
2022-12-19T12:35:30.366Z,7.60
2022-12-19T12:39:46.280Z,7.60
2022-12-19T12:42:38.778Z,7.70
2022-12-19T12:45:42.772Z,7.70
2022-12-19T12:48:20.107Z,7.80
2022-12-19T12:50:57.891Z,7.80
2022-12-19T12:53:33.785Z,7.90
2022-12-19T12:56:06.553Z,8.00
2022-12-19T12:58:52.897Z,8.00
2022-12-19T13:01:39.804Z,8.10
2022-12-19T13:04:13.732Z,8.10
2022-12-19T13:07:23.381Z,8.20
2022-12-19T13:10:06.637Z,8.20
2022-12-19T13:17:44.313Z,8.30
2022-12-19T13:20:47.681Z,8.30
2022-12-19T13:23:22.952Z,8.40
2022-12-19T13:25:54.584Z,8.40
2022-12-19T13:28:21.306Z,8.50
2022-12-19T13:31:19.561Z,8.50
2022-12-19T13:33:53.555Z,8.50
2022-12-19T13:39:51.597Z,8.50
2022-12-19T13:39:54.507Z,8.60
2022-12-19T13:42:46.496Z,8.60
2022-12-19T13:45:25.938Z,8.70
2022-12-19T13:47:56.037Z,8.70
2022-12-19T13:50:32.184Z,8.60
2022-12-19T13:52:59.201Z,8.70
2022-12-19T13:55:28.511Z,8.60
2022-12-19T13:57:56.239Z,8.60
2022-12-19T14:00:35.116Z,8.60
2022-12-19T14:03:03.039Z,8.50
2022-12-19T14:06:16.203Z,8.50
2022-12-19T14:08:25.793Z,8.50
2022-12-19T14:11:41.815Z,8.50
2022-12-19T14:14:14.989Z,8.40
2022-12-19T14:16:46.003Z,8.40
2022-12-19T14:19:30.886Z,8.30
2022-12-19T14:22:15.740Z,8.40
2022-12-19T14:25:49.275Z,8.30
2022-12-19T14:28:16.910Z,8.30
2022-12-19T14:30:40.522Z,8.30
2022-12-19T14:33:45.855Z,8.30
2022-12-19T14:36:12.188Z,8.30
2022-12-19T14:39:25.721Z,8.20
2022-12-19T14:42:01.932Z,8.30
2022-12-19T14:51:43.000Z,8.30
2022-12-19T14:54:06.399Z,8.30
2022-12-19T14:54:33.978Z,8.30
2022-12-19T14:54:37.841Z,8.30
2022-12-19T14:56:53.861Z,8.40
2022-12-19T14:59:00.569Z,8.40
2022-12-19T15:01:30.237Z,8.40
2022-12-19T15:04:50.919Z,8.40
2022-12-19T15:07:07.695Z,8.40
2022-12-19T15:11:00.329Z,8.40
2022-12-19T15:14:48.758Z,8.40
2022-12-19T15:16:30.745Z,8.40
2022-12-19T15:19:13.275Z,8.40
2022-12-19T15:21:42.374Z,8.40
2022-12-19T15:24:09.783Z,8.50
2022-12-19T15:26:54.612Z,8.40
2022-12-19T15:29:25.653Z,8.50
2022-12-19T15:31:54.027Z,8.50
2022-12-19T15:34:43.038Z,8.60
2022-12-19T15:37:27.015Z,8.60
2022-12-19T15:40:03.318Z,8.60
2022-12-19T15:42:32.889Z,8.60
2022-12-19T15:45:01.801Z,8.60
2022-12-19T15:47:58.618Z,8.60
2022-12-19T15:56:59.058Z,8.60
2022-12-19T15:59:45.699Z,8.60
2022-12-19T16:02:42.714Z,8.60
2022-12-19T16:05:26.889Z,8.60
2022-12-19T16:08:19.611Z,8.60
2022-12-19T16:11:02.358Z,8.60
2022-12-19T16:13:36.438Z,8.60
2022-12-19T16:16:13.064Z,8.70
2022-12-19T16:18:42.849Z,8.70
2022-12-19T16:21:31.708Z,8.70
2022-12-19T16:24:00.982Z,8.70
2022-12-19T16:26:32.525Z,8.70
2022-12-19T16:29:00.011Z,8.70
2022-12-19T16:31:28.009Z,8.80
2022-12-19T16:33:54.850Z,8.80
2022-12-19T16:36:21.989Z,8.80
2022-12-19T16:38:48.855Z,8.80
2022-12-19T16:41:20.720Z,8.80
2022-12-19T16:43:47.874Z,8.80
2022-12-19T16:46:21.062Z,8.80
2022-12-19T16:48:48.869Z,8.80
2022-12-19T16:51:20.784Z,8.80
2022-12-19T16:53:49.203Z,8.80
2022-12-19T16:56:38.210Z,8.90
2022-12-19T16:59:12.572Z,8.80
2022-12-19T17:01:39.459Z,8.80
2022-12-19T17:04:06.352Z,8.80
2022-12-19T17:06:33.235Z,8.80
2022-12-19T17:08:59.988Z,8.70
2022-12-19T17:11:28.048Z,8.80
2022-12-19T17:14:08.366Z,8.80
2022-12-19T17:16:35.349Z,8.70
2022-12-19T17:19:02.332Z,8.80
2022-12-19T17:21:29.055Z,8.80
2022-12-19T17:23:55.814Z,8.80
2022-12-19T17:26:22.610Z,8.80
2022-12-19T17:28:49.356Z,8.80
2022-12-19T17:31:39.138Z,8.80
2022-12-19T17:34:24.247Z,8.80
2022-12-19T17:36:51.318Z,8.80
2022-12-19T17:39:19.197Z,8.80
2022-12-19T17:41:47.256Z,8.80
2022-12-19T17:44:14.041Z,8.70
2022-12-19T17:46:41.121Z,8.70
2022-12-19T17:49:16.743Z,8.70
2022-12-19T17:51:48.727Z,8.70
2022-12-19T17:54:15.655Z,8.70
2022-12-19T17:56:42.530Z,8.70
2022-12-19T17:59:09.272Z,8.70
2022-12-19T18:01:37.754Z,8.70
2022-12-19T18:04:04.738Z,8.70
2022-12-19T18:06:31.499Z,8.80
2022-12-19T18:08:58.195Z,8.70
2022-12-19T18:11:26.500Z,8.70
2022-12-19T18:13:53.623Z,8.80
2022-12-19T18:16:26.374Z,8.80
2022-12-19T18:18:53.248Z,8.80
2022-12-19T18:21:24.121Z,8.80
2022-12-19T18:23:51.659Z,8.80
2022-12-19T18:26:18.505Z,8.80
2022-12-19T18:28:45.327Z,8.80
2022-12-19T18:31:19.404Z,8.80
2022-12-19T18:33:49.082Z,8.80
2022-12-19T18:36:22.853Z,8.80
2022-12-19T18:38:53.462Z,8.90
2022-12-19T18:41:24.704Z,8.90
2022-12-19T18:44:04.186Z,8.90
2022-12-19T18:46:35.073Z,8.90
2022-12-19T18:49:03.769Z,8.90
2022-12-19T18:51:37.296Z,9.00
2022-12-19T18:54:20.685Z,9.00
2022-12-19T18:56:58.989Z,9.00
2022-12-19T18:59:29.125Z,9.00
2022-12-19T19:01:58.916Z,9.00
2022-12-19T19:04:26.736Z,9.10
2022-12-19T19:11:23.265Z,9.10
2022-12-19T19:13:50.612Z,9.10
2022-12-19T19:16:21.298Z,9.20
2022-12-19T19:18:56.002Z,9.20
2022-12-19T19:21:26.549Z,9.20
2022-12-19T19:23:57.587Z,9.20
2022-12-19T19:26:24.593Z,9.20
2022-12-19T19:28:52.668Z,9.20
2022-12-19T19:31:23.250Z,9.30
2022-12-19T19:34:03.212Z,9.30
2022-12-19T19:36:32.831Z,9.20
2022-12-19T19:38:59.653Z,9.30
2022-12-19T19:41:29.590Z,9.30
2022-12-19T19:43:58.589Z,9.40
2022-12-19T19:46:26.535Z,9.40
2022-12-19T19:48:53.315Z,9.40
2022-12-19T19:51:20.485Z,9.40
2022-12-19T19:53:47.411Z,9.40
2022-12-19T19:56:14.331Z,9.50
2022-12-19T19:58:41.219Z,9.50
2022-12-19T20:01:10.346Z,9.50
2022-12-19T20:03:39.804Z,9.60
2022-12-19T20:06:07.206Z,9.60
2022-12-19T20:08:39.545Z,9.60
2022-12-19T20:11:10.524Z,9.60
2022-12-19T20:13:38.527Z,9.60
2022-12-19T20:16:18.296Z,9.60
2022-12-19T20:18:50.989Z,9.60
2022-12-19T20:21:19.643Z,9.70
2022-12-19T20:23:46.600Z,9.70
2022-12-19T20:26:16.189Z,9.70
2022-12-19T20:28:48.550Z,9.80
2022-12-19T20:31:21.490Z,9.80
2022-12-19T20:33:48.970Z,9.80
2022-12-19T20:36:16.704Z,9.80
2022-12-19T20:38:43.624Z,9.80
2022-12-19T20:41:10.447Z,9.80
2022-12-19T20:43:38.533Z,9.80
2022-12-19T20:46:09.324Z,9.90
2022-12-19T20:48:36.765Z,9.90
2022-12-19T20:51:05.077Z,10.00
2022-12-19T20:53:34.169Z,10.00
2022-12-19T20:56:04.356Z,10.00
2022-12-19T20:58:34.403Z,10.10
2022-12-19T21:01:06.362Z,10.10
2022-12-19T21:03:34.146Z,10.10
2022-12-19T21:06:01.261Z,10.20
2022-12-19T21:08:28.446Z,10.20
2022-12-19T21:10:55.243Z,10.20
2022-12-19T21:13:23.129Z,10.20
2022-12-19T21:15:57.302Z,10.20
2022-12-19T21:18:26.383Z,10.20
2022-12-19T21:20:53.664Z,10.10
2022-12-19T21:23:20.975Z,10.20
2022-12-19T21:25:48.433Z,10.10
2022-12-19T21:28:17.094Z,10.10
2022-12-19T21:30:44.040Z,10.20
2022-12-19T21:33:11.142Z,10.20
2022-12-19T21:35:38.019Z,10.20
2022-12-19T21:38:05.124Z,10.20
2022-12-19T21:40:31.992Z,10.20
2022-12-19T21:42:59.136Z,10.30
2022-12-19T21:45:26.082Z,10.30
2022-12-19T21:47:52.897Z,10.30
2022-12-19T21:50:19.995Z,10.30
2022-12-19T21:52:50.215Z,10.20
2022-12-19T21:55:21.203Z,10.30
2022-12-19T21:57:48.037Z,10.30
2022-12-19T22:00:15.335Z,10.30
2022-12-19T22:02:55.552Z,10.20
2022-12-19T22:05:29.012Z,10.20
2022-12-19T22:07:55.864Z,10.20
2022-12-19T22:10:22.928Z,10.20
2022-12-19T22:12:49.941Z,10.20
2022-12-19T22:15:16.834Z,10.20
2022-12-19T22:17:43.901Z,10.30
2022-12-19T22:20:10.930Z,10.30
2022-12-19T22:22:37.705Z,10.30
2022-12-19T22:25:04.978Z,10.30
2022-12-19T22:27:31.811Z,10.30
2022-12-19T22:29:59.605Z,10.30
2022-12-19T22:32:30.123Z,10.30
2022-12-19T22:34:58.039Z,10.40
2022-12-19T22:37:25.273Z,10.40
2022-12-19T22:39:52.053Z,10.40
2022-12-19T22:42:24.070Z,10.40
2022-12-19T22:44:54.489Z,10.40
2022-12-19T22:47:25.539Z,10.50
2022-12-19T22:49:59.260Z,10.50
2022-12-19T22:52:32.950Z,10.50
2022-12-19T22:55:06.119Z,10.50
2022-12-19T22:57:37.680Z,10.60
2022-12-19T23:00:12.091Z,10.60
2022-12-19T23:02:44.928Z,10.60
2022-12-19T23:05:16.353Z,10.60
2022-12-19T23:07:46.045Z,10.60
2022-12-19T23:10:15.091Z,10.70
2022-12-19T23:12:46.300Z,10.70
2022-12-19T23:15:17.277Z,10.70
2022-12-19T23:17:48.114Z,10.80
2022-12-19T23:20:18.001Z,10.80
2022-12-19T23:22:57.591Z,10.70
2022-12-19T23:25:29.178Z,10.70
2022-12-19T23:28:00.846Z,10.70
2022-12-19T23:30:34.071Z,10.80
2022-12-19T23:33:10.104Z,10.70
2022-12-19T23:35:46.143Z,10.80
2022-12-19T23:38:17.489Z,10.80
2022-12-19T23:40:49.537Z,10.80
2022-12-19T23:43:27.665Z,10.80
2022-12-19T23:46:02.594Z,10.80
2022-12-19T23:48:36.259Z,10.80
2022-12-19T23:51:11.183Z,10.80
2022-12-19T23:53:49.181Z,10.80
2022-12-19T23:56:27.730Z,10.90
2022-12-19T23:58:59.977Z,10.90
